Time;durP1;ratioP1;P1;durP2;ratioP2;P2;SDS_P1;SDS_P2;PMS_P1;PMS_P2;Temp;Humidity;BMP_temperature;BMP_pressure;BME280_temperature;BME280_humidity;BME280_pressure;Samples;Min_cycle;Max_cycle;Signal;HPM_P1;HPM_P2
2022/03/07 00:01:52;;;;;;;17.67;11.93;;;;;;;-2.52;83.82;102798.78;4993005;28;20039;-77
2022/03/07 00:04:17;;;;;;;18.60;12.60;;;;;;;-2.54;84.39;102791.16;4993252;28;20427;-77
2022/03/07 00:06:46;;;;;;;21.00;14.50;;;;;;;-2.56;84.54;102781.81;4992953;28;20027;-77
2022/03/07 00:09:15;;;;;;;19.15;12.40;;;;;;;-3.00;84.16;102703.28;4992847;28;20164;-77
2022/03/07 00:11:42;;;;;;;21.38;14.45;;;;;;;-2.89;84.92;102722.06;4992823;28;20031;-77
2022/03/07 00:14:13;;;;;;;23.88;14.95;;;;;;;-2.44;84.69;102797.28;4992880;28;20081;-79
2022/03/07 00:16:38;;;;;;;24.88;15.43;;;;;;;-2.45;84.37;102796.44;4992577;28;20173;-76
2022/03/07 00:19:04;;;;;;;22.90;15.10;;;;;;;-2.49;84.81;102791.25;4992746;28;20030;-76
2022/03/07 00:21:31;;;;;;;21.63;15.32;;;;;;;-2.48;84.59;102788.75;4992918;28;20023;-76
2022/03/07 00:24:00;;;;;;;20.05;14.15;;;;;;;-2.79;84.44;102766.97;4991433;28;20045;-76
2022/03/07 00:26:26;;;;;;;22.05;15.50;;;;;;;-2.77;84.51;102767.00;4992851;28;20069;-77
2022/03/07 00:28:52;;;;;;;22.40;14.82;;;;;;;-2.70;84.99;102800.06;4993016;28;20106;-77
2022/03/07 00:31:19;;;;;;;20.98;13.90;;;;;;;-2.98;85.23;102778.31;4992958;28;20034;-77
2022/03/07 00:33:45;;;;;;;21.98;14.05;;;;;;;-2.93;85.38;102789.41;4992977;28;20023;-76
2022/03/07 00:36:10;;;;;;;24.38;14.73;;;;;;;-2.87;85.58;102808.91;4992866;28;20030;-76
2022/03/07 00:38:36;;;;;;;23.83;14.05;;;;;;;-2.90;85.65;102806.31;4992903;28;20541;-80
2022/03/07 00:41:02;;;;;;;21.10;13.98;;;;;;;-3.22;85.60;102767.63;4992774;28;20022;-77
2022/03/07 00:43:30;;;;;;;21.33;13.75;;;;;;;-3.41;86.29;102735.16;4992791;28;20030;-77
2022/03/07 00:45:55;;;;;;;19.38;13.25;;;;;;;-3.22;85.95;102776.06;4992904;28;20522;-77
2022/03/07 00:48:21;;;;;;;22.63;14.77;;;;;;;-3.48;86.57;102734.13;4991651;28;20035;-76
2022/03/07 00:50:48;;;;;;;20.90;14.13;;;;;;;-3.35;86.85;102755.47;4996344;28;20103;-76
2022/03/07 00:53:16;;;;;;;21.98;16.05;;;;;;;-3.05;86.95;102805.94;4996554;28;20049;-77
2022/03/07 00:55:42;;;;;;;22.27;13.48;;;;;;;-3.39;86.96;102754.56;4995014;28;20034;-76
2022/03/07 00:58:07;;;;;;;19.60;13.88;;;;;;;-3.27;87.73;102784.31;4996353;28;20023;-77
2022/03/07 01:00:33;;;;;;;22.67;14.18;;;;;;;-3.19;87.39;102800.53;4996307;28;20053;-77
2022/03/07 01:02:59;;;;;;;19.77;13.88;;;;;;;-3.40;88.25;102762.97;4996016;28;20480;-77
2022/03/07 01:05:25;;;;;;;19.90;13.82;;;;;;;-3.27;87.36;102791.91;4996212;28;20036;-77
2022/03/07 01:07:50;;;;;;;22.00;14.13;;;;;;;-3.19;88.20;102814.03;4997157;28;20101;-77
2022/03/07 01:10:15;;;;;;;24.80;14.88;;;;;;;-3.33;87.88;102789.25;4996480;28;20143;-78
2022/03/07 01:12:41;;;;;;;24.35;14.25;;;;;;;-3.24;87.71;102807.16;4997116;28;20105;-80
2022/03/07 01:15:08;;;;;;;21.65;14.10;;;;;;;-3.33;88.46;102802.72;4997358;28;20034;-80
2022/03/07 01:17:37;;;;;;;21.95;13.52;;;;;;;-3.53;88.09;102773.56;4998108;28;20022;-80
2022/03/07 01:20:06;;;;;;;21.45;14.30;;;;;;;-3.31;88.70;102818.78;4997547;28;20165;-81
2022/03/07 01:22:31;;;;;;;20.15;13.88;;;;;;;-3.37;88.04;102807.66;4996588;28;20389;-76
2022/03/07 01:24:57;;;;;;;20.92;13.57;;;;;;;-3.42;89.16;102801.63;4996024;28;20037;-76
2022/03/07 01:27:23;;;;;;;25.58;14.25;;;;;;;-3.28;89.75;102813.78;4996279;28;20041;-76
2022/03/07 01:29:48;;;;;;;22.92;14.52;;;;;;;-3.23;89.37;102807.19;4996123;28;20030;-77
2022/03/07 01:32:13;;;;;;;25.38;15.25;;;;;;;-3.45;89.02;102769.56;4995944;28;20046;-76
2022/03/07 01:34:39;;;;;;;22.33;15.40;;;;;;;-3.28;88.71;102796.09;4995584;28;20034;-76
2022/03/07 01:37:04;;;;;;;20.98;14.25;;;;;;;-3.58;88.72;102759.97;4995776;28;20077;-77
2022/03/07 01:39:29;;;;;;;21.75;13.98;;;;;;;-3.50;88.37;102791.31;4996026;28;20101;-77
2022/03/07 01:41:55;;;;;;;24.15;14.73;;;;;;;-3.36;88.54;102801.78;4995539;28;20077;-77
2022/03/07 01:44:23;;;;;;;22.02;14.32;;;;;;;-4.45;88.31;102641.53;4995944;28;20388;-77
2022/03/07 01:46:49;;;;;;;19.45;13.40;;;;;;;-3.48;89.21;102809.88;4995360;28;20073;-77
2022/03/07 01:49:14;;;;;;;20.08;13.70;;;;;;;-3.52;88.77;102808.97;4996387;28;20038;-77
2022/03/07 01:51:42;;;;;;;25.67;14.77;;;;;;;-3.51;89.73;102812.34;4995715;28;20439;-76
2022/03/07 01:54:09;;;;;;;22.55;14.63;;;;;;;-3.71;90.00;102773.94;4995314;28;20034;-77
2022/03/07 01:56:35;;;;;;;24.05;15.00;;;;;;;-3.72;89.41;102776.41;4995408;28;20033;-77
2022/03/07 01:59:02;;;;;;;22.65;14.35;;;;;;;-4.01;89.90;102737.78;4995441;28;20412;-76
2022/03/07 02:01:28;;;;;;;25.33;14.00;;;;;;;-3.59;89.70;102808.75;4994696;28;20082;-76
2022/03/07 02:03:53;;;;;;;20.27;14.00;;;;;;;-3.65;89.79;102804.38;4995315;28;20054;-77
2022/03/07 02:06:19;;;;;;;23.90;14.85;;;;;;;-3.65;90.08;102803.53;4995279;28;20054;-77
2022/03/07 02:08:45;;;;;;;22.75;15.05;;;;;;;-3.60;90.07;102796.94;4999093;28;20026;-77
2022/03/07 02:11:11;;;;;;;23.25;14.65;;;;;;;-3.81;90.93;102757.69;4999849;28;20022;-77
2022/03/07 02:13:36;;;;;;;23.92;15.05;;;;;;;-3.60;89.85;102796.94;4999712;28;20472;-77
2022/03/07 02:16:02;;;;;;;20.90;14.50;;;;;;;-3.73;89.65;102777.25;4998919;28;20041;-77
2022/03/07 02:18:29;;;;;;;22.85;15.88;;;;;;;-3.68;89.37;102788.31;5000495;28;20033;-77
2022/03/07 02:20:58;;;;;;;21.13;14.55;;;;;;;-4.21;90.15;102712.84;5000842;28;20491;-77
2022/03/07 02:23:24;;;;;;;20.50;14.77;;;;;;;-3.76;90.03;102786.41;5000469;28;20373;-77
2022/03/07 02:25:49;;;;;;;22.90;14.85;;;;;;;-4.26;90.52;102713.50;5000658;28;20117;-77
2022/03/07 02:28:15;;;;;;;23.77;15.35;;;;;;;-3.86;90.05;102776.88;5000222;28;20041;-77
2022/03/07 02:30:40;;;;;;;20.52;14.57;;;;;;;-4.00;90.28;102752.94;5000585;28;20041;-77
2022/03/07 02:33:10;;;;;;;24.80;15.02;;;;;;;-4.01;90.56;102756.28;4999682;28;20608;-77
2022/03/07 02:35:36;;;;;;;21.17;14.27;;;;;;;-3.81;90.88;102784.59;4999926;28;20510;-76
2022/03/07 02:38:01;;;;;;;20.60;14.63;;;;;;;-3.96;90.48;102764.81;5000283;28;20062;-77
2022/03/07 02:40:26;;;;;;;24.75;15.60;;;;;;;-3.83;90.79;102792.13;5000075;28;20034;-77
2022/03/07 02:42:52;;;;;;;24.88;16.42;;;;;;;-3.81;90.70;102787.97;4999290;28;20470;-77
2022/03/07 02:45:17;;;;;;;27.02;15.52;;;;;;;-3.80;91.08;102788.81;5000618;28;20033;-77
2022/03/07 02:47:42;;;;;;;26.25;16.23;;;;;;;-3.80;90.95;102788.81;4999737;28;20034;-77
2022/03/07 02:50:08;;;;;;;23.50;14.93;;;;;;;-4.21;90.98;102722.94;4999754;28;20080;-77
2022/03/07 02:52:33;;;;;;;25.25;14.90;;;;;;;-3.83;90.93;102787.09;4999808;28;20030;-77
2022/03/07 02:54:59;;;;;;;23.60;15.00;;;;;;;-3.82;91.25;102782.88;5000231;28;20054;-78
2022/03/07 02:57:24;;;;;;;23.35;15.27;;;;;;;-3.86;90.66;102786.97;4999913;28;20030;-77
2022/03/07 02:59:49;;;;;;;23.02;14.95;;;;;;;-3.84;91.17;102785.34;4999703;28;20026;-78
2022/03/07 03:02:15;;;;;;;22.33;14.95;;;;;;;-3.81;91.33;102780.41;4999800;28;20057;-77
2022/03/07 03:04:40;;;;;;;25.52;15.45;;;;;;;-3.82;91.22;102778.69;5000200;28;20383;-77
2022/03/07 03:07:06;;;;;;;25.65;16.70;;;;;;;-3.78;91.58;102783.00;5000365;28;20025;-77
2022/03/07 03:09:31;;;;;;;26.27;16.55;;;;;;;-3.72;91.60;102778.94;5000335;28;20022;-77
2022/03/07 03:11:56;;;;;;;23.80;14.85;;;;;;;-3.73;91.12;102777.25;5000030;28;20030;-77
2022/03/07 03:14:22;;;;;;;24.48;15.15;;;;;;;-3.71;91.03;102778.97;5000520;28;20045;-77
2022/03/07 03:16:47;;;;;;;25.27;15.88;;;;;;;-3.68;91.94;102778.19;4999652;28;20023;-77
2022/03/07 03:19:12;;;;;;;25.00;15.80;;;;;;;-3.84;91.52;102744.09;5000065;28;20142;-78
2022/03/07 03:21:38;;;;;;;26.75;16.50;;;;;;;-3.98;91.83;102715.13;5000392;28;20023;-77
2022/03/07 03:24:03;;;;;;;22.65;15.48;;;;;;;-3.58;92.17;102783.53;4999160;28;20491;-77
2022/03/07 03:26:29;;;;;;;24.73;16.92;;;;;;;-3.55;92.28;102783.59;4999521;28;20026;-77
2022/03/07 03:28:54;;;;;;;28.55;16.80;;;;;;;-3.82;91.65;102732.41;4999594;28;20109;-77
2022/03/07 03:31:19;;;;;;;26.02;17.13;;;;;;;-3.89;91.52;102713.72;5000338;28;20022;-77
2022/03/07 03:33:45;;;;;;;27.05;16.58;;;;;;;-3.48;91.64;102784.63;4999587;28;20018;-76
2022/03/07 03:36:10;;;;;;;30.58;15.93;;;;;;;-3.73;91.39;102735.19;4999411;28;20046;-78
2022/03/07 03:38:35;;;;;;;27.55;16.48;;;;;;;-3.59;91.64;102764.16;4998442;28;20030;-78
2022/03/07 03:41:01;;;;;;;29.95;17.65;;;;;;;-3.48;91.65;102784.63;4997931;28;20030;-81
2022/03/07 03:43:26;;;;;;;28.60;16.67;;;;;;;-3.62;91.25;102768.28;4997576;28;20030;-77
2022/03/07 03:45:51;;;;;;;30.75;17.73;;;;;;;-3.53;91.11;102788.72;4999308;28;20098;-79
2022/03/07 03:48:17;;;;;;;26.63;16.63;;;;;;;-3.70;91.31;102764.69;4995941;28;20361;-77
2022/03/07 03:50:42;;;;;;;26.17;16.08;;;;;;;-3.57;91.10;102789.44;4994268;28;20022;-80
2022/03/07 03:53:07;;;;;;;23.38;15.35;;;;;;;-3.62;90.98;102791.00;4995075;28;20033;-77
2022/03/07 03:55:33;;;;;;;26.92;16.48;;;;;;;-3.61;91.52;102790.19;4993667;28;20081;-77
2022/03/07 03:57:58;;;;;;;27.30;16.55;;;;;;;-3.73;92.10;102767.13;4993419;28;20027;-78
2022/03/07 04:00:24;;;;;;;23.23;15.73;;;;;;;-3.59;91.96;102791.94;4993633;28;20026;-80
2022/03/07 04:02:50;;;;;;;30.48;17.77;;;;;;;-3.56;91.24;102793.66;4992965;28;20381;-78
2022/03/07 04:05:16;;;;;;;27.48;17.20;;;;;;;-3.75;91.23;102762.03;4993460;28;20036;-78
2022/03/07 04:07:42;;;;;;;28.63;17.02;;;;;;;-3.59;91.22;102791.94;4993177;28;20027;-78
2022/03/07 04:10:08;;;;;;;27.45;17.10;;;;;;;-3.56;91.53;102796.19;4993609;28;20089;-77
2022/03/07 04:12:34;;;;;;;26.50;16.77;;;;;;;-3.85;91.31;102748.31;4993252;28;20030;-78
2022/03/07 04:14:59;;;;;;;26.98;17.02;;;;;;;-3.70;91.45;102768.06;4993103;28;20129;-77
2022/03/07 04:17:24;;;;;;;29.58;17.58;;;;;;;-3.64;91.54;102788.41;4993345;28;20217;-77
2022/03/07 04:19:50;;;;;;;27.80;18.02;;;;;;;-3.62;92.27;102789.34;4993243;28;20026;-78
2022/03/07 04:22:15;;;;;;;27.92;18.08;;;;;;;-3.58;91.70;102787.72;4993413;28;20049;-78
2022/03/07 04:24:41;;;;;;;24.90;16.65;;;;;;;-3.65;91.71;102775.75;4994041;28;20034;-77
2022/03/07 04:27:06;;;;;;;30.42;17.55;;;;;;;-3.60;92.02;102787.69;4997171;28;20028;-77
2022/03/07 04:29:32;;;;;;;27.95;17.17;;;;;;;-3.65;91.61;102795.94;4997250;28;20088;-77
2022/03/07 04:31:57;;;;;;;27.45;18.27;;;;;;;-3.65;92.11;102794.28;4997060;28;20030;-77
2022/03/07 04:34:23;;;;;;;29.15;17.70;;;;;;;-3.68;92.31;102783.25;4997170;28;20030;-78
2022/03/07 04:36:49;;;;;;;29.15;17.70;;;;;;;-3.68;91.89;102786.63;4996989;28;20026;-77
2022/03/07 04:39:14;;;;;;;31.45;17.95;;;;;;;-3.71;92.49;102791.59;4996981;28;20084;-78
2022/03/07 04:41:40;;;;;;;27.90;17.90;;;;;;;-3.70;91.77;102792.47;4997075;28;20027;-77
2022/03/07 04:44:06;;;;;;;31.33;18.02;;;;;;;-3.82;91.95;102768.59;4996970;28;20100;-82
2022/03/07 04:46:31;;;;;;;27.70;17.23;;;;;;;-3.77;91.79;102792.28;4997000;28;20146;-78
2022/03/07 04:48:57;;;;;;;27.85;18.15;;;;;;;-3.94;91.88;102767.38;4996387;28;20572;-80
2022/03/07 04:51:22;;;;;;;28.33;17.55;;;;;;;-3.82;92.02;102788.78;4997053;28;20038;-77
2022/03/07 04:53:48;;;;;;;29.05;17.55;;;;;;;-3.87;92.30;102787.78;4996745;28;20065;-78
2022/03/07 04:56:13;;;;;;;29.17;18.02;;;;;;;-3.97;92.27;102768.16;4996680;28;20114;-81
2022/03/07 04:58:39;;;;;;;31.05;19.48;;;;;;;-3.81;92.54;102795.53;4996711;28;20432;-81
2022/03/07 05:01:04;;;;;;;28.10;17.30;;;;;;;-4.01;92.27;102760.47;4996585;28;20440;-78
2022/03/07 05:03:30;;;;;;;30.42;18.35;;;;;;;-4.12;92.33;102740.00;4996430;28;20031;-77
2022/03/07 05:05:56;;;;;;;30.50;18.20;;;;;;;-3.98;92.43;102766.44;4996897;28;20034;-77
2022/03/07 05:08:21;;;;;;;28.85;17.83;;;;;;;-4.00;92.02;102755.47;4997802;28;20033;-77
2022/03/07 05:10:47;;;;;;;31.10;18.83;;;;;;;-3.87;92.52;102784.41;4997341;28;20041;-78
2022/03/07 05:13:12;;;;;;;29.60;18.55;;;;;;;-4.00;92.35;102760.50;4995546;28;20045;-77
2022/03/07 05:15:40;;;;;;;28.77;17.52;;;;;;;-4.10;92.72;102750.97;4996979;28;20070;-77
2022/03/07 05:18:06;;;;;;;29.67;17.33;;;;;;;-4.33;92.23;102717.50;4997123;28;20037;-77
2022/03/07 05:20:32;;;;;;;32.53;18.15;;;;;;;-3.97;92.62;102784.97;4997045;28;20101;-77
2022/03/07 05:22:57;;;;;;;31.00;18.92;;;;;;;-3.98;92.32;102790.84;4997210;28;20546;-77
2022/03/07 05:25:23;;;;;;;30.80;19.20;;;;;;;-3.96;92.70;102792.59;4996982;28;20030;-77
2022/03/07 05:27:49;;;;;;;32.03;18.85;;;;;;;-4.15;92.62;102760.06;4996583;28;20080;-77
2022/03/07 05:30:18;;;;;;;29.13;17.20;;;;;;;-4.28;92.57;102755.50;4996365;28;20113;-78
2022/03/07 05:32:44;;;;;;;30.42;18.55;;;;;;;-4.03;92.88;102788.19;4996026;28;20056;-77
2022/03/07 05:35:14;;;;;;;30.48;18.58;;;;;;;-4.17;92.83;102772.66;4995348;28;20041;-78
2022/03/07 05:37:39;;;;;;;30.83;19.63;;;;;;;-4.07;93.25;102776.28;4996298;28;20031;-77
2022/03/07 05:40:06;;;;;;;30.80;19.10;;;;;;;-3.99;93.24;102791.66;4995942;28;20080;-77
2022/03/07 05:42:33;;;;;;;32.45;21.15;;;;;;;-3.98;92.57;102790.84;4995747;28;20038;-79
2022/03/07 05:44:58;;;;;;;30.25;18.85;;;;;;;-4.03;92.91;102780.63;4995575;28;20038;-77
2022/03/07 05:47:24;;;;;;;31.88;19.98;;;;;;;-4.07;92.56;102784.72;4995969;28;20388;-80
2022/03/07 05:49:49;;;;;;;34.58;20.67;;;;;;;-4.09;92.47;102790.53;4995560;28;20054;-78
2022/03/07 05:52:15;;;;;;;34.97;20.50;;;;;;;-4.37;93.45;102743.47;4995640;28;20472;-78
2022/03/07 05:54:40;;;;;;;35.22;20.58;;;;;;;-4.06;93.71;102788.94;4994121;28;20038;-78
2022/03/07 05:57:05;;;;;;;36.65;21.25;;;;;;;-4.02;93.14;102792.44;4995533;28;20058;-85
2022/03/07 05:59:31;;;;;;;37.13;21.02;;;;;;;-4.02;93.26;102794.09;4995525;28;20111;-82
2022/03/07 06:01:56;;;;;;;37.80;22.30;;;;;;;-4.02;93.23;102799.13;4995864;28;20073;-78
2022/03/07 06:04:22;;;;;;;36.90;21.95;;;;;;;-4.03;93.47;102808.38;4995742;28;20341;-78
2022/03/07 06:06:47;;;;;;;37.88;21.95;;;;;;;-4.13;93.13;102788.72;4996481;28;20072;-78
2022/03/07 06:09:12;;;;;;;38.40;21.92;;;;;;;-4.48;92.92;102743.16;4997511;28;20085;-77
2022/03/07 06:11:38;;;;;;;41.08;23.15;;;;;;;-4.36;92.84;102777.97;4997212;28;20034;-77
2022/03/07 06:14:03;;;;;;;38.53;22.60;;;;;;;-4.11;92.76;102813.19;4995810;28;20030;-76
2022/03/07 06:16:28;;;;;;;36.60;21.30;;;;;;;-4.09;93.62;102818.28;4996022;28;20180;-79
2022/03/07 06:18:54;;;;;;;38.58;22.30;;;;;;;-4.09;93.12;102828.38;4996651;28;20030;-77
2022/03/07 06:21:19;;;;;;;37.92;21.20;;;;;;;-4.32;93.33;102787.34;4996375;28;20031;-74
2022/03/07 06:23:44;;;;;;;36.05;21.15;;;;;;;-4.69;93.16;102722.34;4996512;28;20054;-77
2022/03/07 06:26:09;;;;;;;39.08;20.90;;;;;;;-4.30;93.58;102785.72;4995766;28;20077;-81
2022/03/07 06:28:35;;;;;;;38.25;21.17;;;;;;;-4.18;94.00;102800.34;4995574;28;20030;-79
2022/03/07 06:31:01;;;;;;;34.25;19.95;;;;;;;-4.27;93.89;102790.84;4995550;28;20112;-79
2022/03/07 06:33:26;;;;;;;33.22;20.38;;;;;;;-4.05;93.46;102831.00;4995161;28;20472;-77
2022/03/07 06:35:52;;;;;;;36.30;20.33;;;;;;;-4.27;93.42;102783.28;4994547;28;20033;-78
2022/03/07 06:38:19;;;;;;;38.30;22.00;;;;;;;-3.91;93.61;102833.09;4994685;28;20438;-77
2022/03/07 06:40:45;;;;;;;34.55;21.38;;;;;;;-4.28;93.38;102773.16;4994688;28;20030;-80
2022/03/07 06:43:10;;;;;;;35.33;21.40;;;;;;;-3.79;93.34;102841.03;4994644;28;20026;-81
2022/03/07 06:45:35;;;;;;;32.92;20.63;;;;;;;-4.01;93.20;102793.28;4994622;28;20042;-78
2022/03/07 06:48:01;;;;;;;35.90;21.67;;;;;;;-3.90;93.07;102807.06;4993768;28;20030;-78
2022/03/07 06:50:26;;;;;;;34.90;21.23;;;;;;;-3.85;92.42;102813.91;4994443;28;20113;-78
2022/03/07 06:52:52;;;;;;;38.83;21.60;;;;;;;-3.60;92.57;102842.41;4994253;28;20030;-78
2022/03/07 06:55:17;;;;;;;40.05;22.50;;;;;;;-3.71;92.39;102821.91;4994197;28;20031;-79
2022/03/07 06:57:43;;;;;;;43.55;21.70;;;;;;;-3.55;91.90;102841.69;4994285;28;20030;-77
2022/03/07 07:00:13;;;;;;;39.03;21.77;;;;;;;-3.49;92.57;102838.50;4993988;28;20034;-78
2022/03/07 07:02:39;;;;;;;39.27;22.97;;;;;;;-4.20;92.62;102708.66;4994103;28;20082;-80
2022/03/07 07:05:06;;;;;;;37.28;21.35;;;;;;;-3.32;92.64;102846.53;4994178;28;20058;-79
2022/03/07 07:07:32;;;;;;;38.45;22.00;;;;;;;-3.45;92.12;102809.97;4993823;28;20109;-83
2022/03/07 07:09:58;;;;;;;40.20;23.00;;;;;;;-3.40;92.03;102808.44;4994015;28;20037;-78
2022/03/07 07:12:23;;;;;;;39.70;23.02;;;;;;;-3.42;91.42;102796.59;4994287;28;20035;-79
2022/03/07 07:14:49;;;;;;;35.75;21.73;;;;;;;-3.08;91.92;102834.50;4993924;28;20037;-79
2022/03/07 07:17:15;;;;;;;37.63;22.30;;;;;;;-2.98;91.65;102835.59;4994067;28;20034;-77
2022/03/07 07:19:41;;;;;;;36.38;21.58;;;;;;;-3.02;91.49;102814.47;4993937;28;20022;-79
2022/03/07 07:22:07;;;;;;;37.33;22.50;;;;;;;-2.80;90.94;102841.13;4993510;28;20263;-83
2022/03/07 07:24:32;;;;;;;36.42;22.67;;;;;;;-2.78;91.51;102829.34;4993761;28;20607;-81
2022/03/07 07:26:57;;;;;;;37.65;24.08;;;;;;;-2.88;91.04;102797.09;4993899;28;20514;-79
2022/03/07 07:29:23;;;;;;;41.05;24.15;;;;;;;-2.57;90.99;102838.28;4993908;28;20035;-77
2022/03/07 07:31:48;;;;;;;37.03;22.58;;;;;;;-2.50;90.66;102840.97;4993798;28;20018;-78
2022/03/07 07:34:14;;;;;;;40.10;23.75;;;;;;;-2.42;90.05;102831.91;4994284;28;20030;-93
2022/03/07 07:36:39;;;;;;;37.83;23.20;;;;;;;-2.34;90.37;102838.00;4993939;28;20026;-76
2022/03/07 07:39:05;;;;;;;36.88;22.40;;;;;;;-2.26;90.22;102840.69;4993662;28;20022;-82
2022/03/07 07:41:30;;;;;;;37.38;22.35;;;;;;;-2.18;89.76;102840.84;4994280;28;20034;-80
2022/03/07 07:43:56;;;;;;;36.28;22.75;;;;;;;-2.26;89.39;102806.91;4993873;28;20030;-82
2022/03/07 07:46:21;;;;;;;35.70;22.52;;;;;;;-2.04;88.92;102832.75;4993593;28;20030;-82
2022/03/07 07:48:46;;;;;;;39.35;22.02;;;;;;;-1.89;88.92;102849.91;4993482;28;20030;-85
2022/03/07 07:51:12;;;;;;;36.58;21.65;;;;;;;-1.80;88.19;102856.84;4993327;28;20026;-81
2022/03/07 07:53:37;;;;;;;31.35;21.02;;;;;;;-1.80;87.73;102841.66;4993867;28;20093;-81
2022/03/07 07:56:03;;;;;;;32.47;20.13;;;;;;;-1.63;86.78;102859.75;4993204;28;20030;-82
2022/03/07 07:58:29;;;;;;;35.17;21.83;;;;;;;-1.94;86.79;102789.91;4993375;28;20023;-81
2022/03/07 08:00:54;;;;;;;30.75;19.77;;;;;;;-1.46;86.15;102860.94;4993306;28;20392;-80
2022/03/07 08:03:19;;;;;;;35.50;21.67;;;;;;;-1.39;86.20;102857.66;4993365;28;20116;-81
2022/03/07 08:05:48;;;;;;;33.58;21.65;;;;;;;-1.31;85.88;102861.19;4993166;28;20022;-83
2022/03/07 08:08:17;;;;;;;33.95;21.65;;;;;;;-1.24;85.61;102857.13;4993224;28;20030;-78
2022/03/07 08:10:42;;;;;;;33.28;21.60;;;;;;;-1.18;84.87;102857.19;4993257;28;20072;-78
2022/03/07 08:13:08;;;;;;;35.67;20.73;;;;;;;-1.57;84.52;102787.25;4993460;28;20101;-81
2022/03/07 08:15:33;;;;;;;36.78;22.05;;;;;;;-1.07;84.23;102860.81;4993335;28;20039;-82
2022/03/07 08:17:58;;;;;;;30.10;20.38;;;;;;;-1.01;84.09;102858.38;4993460;28;20476;-81
2022/03/07 08:20:24;;;;;;;30.63;21.00;;;;;;;-0.99;84.17;102844.03;4993346;28;20551;-77
2022/03/07 08:22:50;;;;;;;31.48;20.58;;;;;;;-0.87;84.30;102851.00;4993146;28;20026;-75
2022/03/07 08:25:17;;;;;;;29.50;19.13;;;;;;;-0.97;82.77;102822.09;4992802;28;20030;-76
2022/03/07 08:27:42;;;;;;;33.40;21.08;;;;;;;-0.74;83.17;102834.28;4993367;28;20015;-79
2022/03/07 08:30:12;;;;;;;31.65;19.30;;;;;;;-0.72;82.88;102830.09;4993097;28;20395;-82
2022/03/07 08:32:38;;;;;;;26.27;18.95;;;;;;;-0.54;82.33;102844.75;4993295;28;20361;-80
2022/03/07 08:35:05;;;;;;;30.40;18.23;;;;;;;-0.44;81.15;102849.13;4992822;28;20153;-75
2022/03/07 08:37:31;;;;;;;26.60;18.08;;;;;;;-0.38;80.41;102832.31;4997066;28;20360;-74
2022/03/07 08:39:56;;;;;;;28.67;17.60;;;;;;;-0.19;80.35;102848.69;5013116;28;20097;-78
2022/03/07 08:42:22;;;;;;;26.90;16.83;;;;;;;-0.07;78.32;102848.84;5013032;28;20034;-74
2022/03/07 08:44:47;;;;;;;22.73;15.57;;;;;;;0.04;77.44;102848.97;5012500;28;20475;-74
2022/03/07 08:47:13;;;;;;;28.33;16.30;;;;;;;0.14;77.38;102852.47;5012553;28;20029;-75
2022/03/07 08:49:38;;;;;;;24.48;16.23;;;;;;;0.24;77.83;102849.22;5012739;28;20080;-80
2022/03/07 08:52:04;;;;;;;23.45;16.88;;;;;;;0.33;76.64;102846.78;5012442;28;20022;-70
2022/03/07 08:54:30;;;;;;;22.40;15.60;;;;;;;0.38;74.97;102842.59;5012262;28;20033;-74
2022/03/07 08:56:55;;;;;;;23.58;15.27;;;;;;;0.43;76.00;102842.66;5012330;28;20060;-74
2022/03/07 08:59:20;;;;;;;19.48;14.68;;;;;;;0.48;74.22;102844.41;5012416;28;20084;-78
2022/03/07 09:01:46;;;;;;;20.70;14.75;;;;;;;0.30;73.41;102800.19;5012225;28;20042;-72
2022/03/07 09:04:11;;;;;;;24.58;15.43;;;;;;;0.44;72.41;102824.03;5012310;28;20061;-74
2022/03/07 09:06:36;;;;;;;29.55;19.88;;;;;;;0.62;72.99;102839.50;5012295;28;20029;-71
2022/03/07 09:09:02;;;;;;;153.73;67.40;;;;;;;0.62;72.72;102831.00;5012421;28;20018;-82
2022/03/07 09:11:28;;;;;;;22.55;14.57;;;;;;;0.71;71.57;102838.75;5015254;28;20022;-78
2022/03/07 09:13:53;;;;;;;20.85;14.00;;;;;;;0.76;71.49;102844.72;5015993;28;20361;-79
2022/03/07 09:16:18;;;;;;;18.63;13.35;;;;;;;0.79;71.38;102834.59;5015898;28;20030;-73
2022/03/07 09:18:44;;;;;;;19.20;13.50;;;;;;;0.85;70.86;102840.56;5015698;28;20379;-78
2022/03/07 09:21:09;;;;;;;21.17;13.82;;;;;;;0.72;70.70;102804.84;5015600;28;20109;-79
2022/03/07 09:23:37;;;;;;;21.85;15.27;;;;;;;0.92;70.13;102838.94;5015649;28;20014;-81
2022/03/07 09:26:09;;;;;;;20.27;14.02;;;;;;;0.98;71.83;102836.44;5015347;28;20084;-76
2022/03/07 09:28:35;;;;;;;16.70;11.02;;;;;;;1.00;68.97;102831.38;5015815;28;20033;-73
2022/03/07 09:31:01;;;;;;;17.33;11.18;;;;;;;1.03;68.36;102821.22;5015571;28;20033;-78
2022/03/07 09:33:27;;;;;;;15.90;10.93;;;;;;;0.88;68.03;102788.88;5015797;28;20451;-77
2022/03/07 09:35:52;;;;;;;16.30;11.10;;;;;;;1.16;67.73;102835.75;5015645;28;20383;-78
2022/03/07 09:38:18;;;;;;;15.80;11.50;;;;;;;1.11;67.46;102812.81;5015198;28;20109;-75
2022/03/07 09:40:43;;;;;;;15.82;11.20;;;;;;;1.23;68.42;102831.56;5015210;28;20018;-76
2022/03/07 09:43:09;;;;;;;17.88;12.52;;;;;;;1.30;68.01;102829.09;5014956;28;20032;-78
2022/03/07 09:45:35;;;;;;;15.20;10.88;;;;;;;1.37;65.60;102825.72;5013749;28;20056;-75
2022/03/07 09:48:01;;;;;;;14.35;10.50;;;;;;;1.43;65.00;102820.69;5015324;28;20022;-79
2022/03/07 09:50:27;;;;;;;17.65;12.32;;;;;;;1.44;65.56;102809.66;5015285;28;20030;-77
2022/03/07 09:52:54;;;;;;;17.67;11.15;;;;;;;1.22;65.84;102769.63;5014982;28;20032;-78
2022/03/07 09:55:20;;;;;;;16.05;11.60;;;;;;;1.63;65.82;102820.81;5013598;28;20033;-81
2022/03/07 09:57:47;;;;;;;15.20;11.63;;;;;;;1.67;65.31;102821.66;5014770;28;20482;-76
2022/03/07 10:00:14;;;;;;;14.15;10.52;;;;;;;1.72;64.29;102817.47;5015066;28;20026;-74
2022/03/07 10:02:39;;;;;;;16.58;10.98;;;;;;;1.77;64.54;102810.72;5014779;28;20042;-75
2022/03/07 10:05:05;;;;;;;14.00;10.80;;;;;;;1.63;63.97;102779.22;5015101;28;20034;-75
2022/03/07 10:07:41;;;;;;;14.88;9.73;;;;;;;1.86;64.21;102804.78;5014955;28;20045;-71
2022/03/07 10:10:08;;;;;;;14.45;10.20;;;;;;;1.90;64.15;102806.53;5014299;28;20113;-72
2022/03/07 10:12:33;;;;;;;14.75;10.45;;;;;;;1.93;62.97;102801.44;5014046;28;20487;-72
2022/03/07 10:15:12;;;;;;;13.02;9.60;;;;;;;1.99;63.97;102804.88;5014785;28;20087;-76
2022/03/07 10:17:40;;;;;;;12.75;9.02;;;;;;;2.06;62.14;102807.44;5014651;28;20436;-71
2022/03/07 10:20:06;;;;;;;13.63;9.07;;;;;;;2.11;63.19;102809.16;5014870;28;20140;-78
2022/03/07 10:22:32;;;;;;;12.05;8.57;;;;;;;2.01;62.58;102779.41;5013202;28;20518;-74
2022/03/07 10:25:06;;;;;;;14.73;9.63;;;;;;;2.22;62.38;102804.94;5014685;28;20044;-73
2022/03/07 10:27:37;;;;;;;12.27;8.30;;;;;;;2.28;61.11;102805.00;5014767;28;20038;-75
2022/03/07 10:30:08;;;;;;;14.07;9.35;;;;;;;2.37;61.46;102801.63;5014455;28;20030;-72
2022/03/07 10:32:33;;;;;;;12.25;8.73;;;;;;;2.40;61.21;102788.88;5014302;28;20026;-81
2022/03/07 10:34:58;;;;;;;13.52;9.30;;;;;;;2.50;61.08;102795.69;5014334;28;20087;-82
2022/03/07 10:37:54;;;;;;;12.07;8.60;;;;;;;2.50;62.06;102774.44;5014328;28;20018;-76
2022/03/07 10:40:21;;;;;;;14.57;8.98;;;;;;;2.56;60.37;102770.22;5013128;28;20113;-78
2022/03/07 10:42:48;;;;;;;13.55;9.02;;;;;;;2.51;60.40;102748.09;5014273;28;20057;-80
2022/03/07 10:45:15;;;;;;;12.68;8.32;;;;;;;2.70;60.60;102765.09;5014149;28;20022;-73
2022/03/07 10:47:40;;;;;;;11.80;8.40;;;;;;;2.58;60.39;102740.44;5014133;28;20111;-76
2022/03/07 10:50:07;;;;;;;13.20;8.93;;;;;;;2.70;60.51;102748.97;5013942;28;20101;-73
2022/03/07 10:52:41;;;;;;;12.95;8.38;;;;;;;2.73;59.26;102739.59;5014016;28;20467;-76
2022/03/07 10:55:08;;;;;;;15.02;9.05;;;;;;;2.85;59.89;102754.91;5013636;28;20083;-80
2022/03/07 10:57:39;;;;;;;12.48;8.25;;;;;;;2.84;59.10;102749.78;5013864;28;20026;-73
2022/03/07 11:00:11;;;;;;;11.05;8.07;;;;;;;2.87;59.97;102737.91;5014130;28;20026;-75
2022/03/07 11:02:42;;;;;;;11.90;7.60;;;;;;;2.91;58.89;102745.56;5013630;28;20046;-74
2022/03/07 11:05:09;;;;;;;13.98;8.45;;;;;;;2.97;59.11;102748.97;5013789;28;20026;-75
2022/03/07 11:07:38;;;;;;;12.82;8.00;;;;;;;2.86;59.27;102709.84;5013655;28;20029;-77